createdAt,value
2018-10-16T00:01:40.588Z,58.50
2018-10-16T00:04:08.950Z,58.60
2018-10-16T00:06:37.287Z,58.70
2018-10-16T00:09:07.317Z,58.40
2018-10-16T00:11:35.621Z,59.10
2018-10-16T00:14:03.926Z,59.10
2018-10-16T00:16:32.214Z,59.20
2018-10-16T00:19:00.552Z,59.50
2018-10-16T00:21:28.855Z,59.50
2018-10-16T00:23:57.100Z,59.60
2018-10-16T00:26:25.449Z,59.70
2018-10-16T00:28:53.769Z,59.80
2018-10-16T00:31:22.078Z,59.90
2018-10-16T00:33:50.391Z,60.60
2018-10-16T00:36:18.699Z,60.30
2018-10-16T00:38:46.929Z,61.00
2018-10-16T00:41:15.348Z,60.70
2018-10-16T00:43:43.650Z,60.80
2018-10-16T00:46:11.927Z,61.00
2018-10-16T00:48:40.271Z,60.90
2018-10-16T00:51:08.579Z,60.80
2018-10-16T00:53:36.864Z,60.70
2018-10-16T00:56:05.407Z,60.90
2018-10-16T00:58:33.738Z,61.20
2018-10-16T01:01:02.057Z,62.30
2018-10-16T01:03:30.305Z,61.70
2018-10-16T01:05:58.624Z,61.70
2018-10-16T01:08:27.216Z,61.60
2018-10-16T01:10:56.569Z,62.20
2018-10-16T01:13:24.881Z,62.20
2018-10-16T01:15:53.272Z,62.20
2018-10-16T01:18:21.595Z,62.20
2018-10-16T01:20:49.861Z,62.50
2018-10-16T01:23:18.106Z,62.60
2018-10-16T01:25:46.407Z,62.90
2018-10-16T01:28:14.795Z,63.10
2018-10-16T01:30:43.108Z,63.40
2018-10-16T01:33:11.403Z,63.40
2018-10-16T01:35:39.738Z,64.30
2018-10-16T01:38:08.038Z,64.20
2018-10-16T01:40:36.337Z,65.40
2018-10-16T01:43:04.677Z,64.40
2018-10-16T01:45:32.967Z,64.60
2018-10-16T01:48:01.347Z,64.60
2018-10-16T01:50:29.638Z,64.90
2018-10-16T01:52:57.917Z,65.00
2018-10-16T01:55:26.290Z,65.10
2018-10-16T01:57:54.593Z,65.30
2018-10-16T02:00:22.877Z,65.50
2018-10-16T02:02:51.307Z,65.70
2018-10-16T02:05:19.577Z,65.80
2018-10-16T02:07:47.894Z,65.90
2018-10-16T02:10:16.235Z,66.10
2018-10-16T02:12:44.543Z,66.40
2018-10-16T02:15:12.860Z,66.80
2018-10-16T02:17:41.157Z,67.10
2018-10-16T02:20:10.046Z,67.00
2018-10-16T02:22:39.193Z,67.20
2018-10-16T02:25:07.949Z,67.50
2018-10-16T02:27:36.216Z,67.70
2018-10-16T02:30:04.926Z,67.80
2018-10-16T02:32:33.182Z,67.90
2018-10-16T02:35:01.446Z,68.00
2018-10-16T02:37:29.759Z,68.50
2018-10-16T02:39:58.117Z,69.40
2018-10-16T02:42:26.426Z,69.60
2018-10-16T02:44:54.702Z,69.70
2018-10-16T02:47:23.017Z,69.80
2018-10-16T02:49:51.280Z,69.80
2018-10-16T02:52:19.694Z,70.20
2018-10-16T02:54:48.051Z,70.10
2018-10-16T02:57:16.429Z,69.90
2018-10-16T02:59:44.741Z,69.90
2018-10-16T03:02:13.039Z,70.20
2018-10-16T03:04:41.503Z,70.30
2018-10-16T03:07:09.799Z,70.50
2018-10-16T03:09:38.065Z,70.80
2018-10-16T03:12:06.457Z,70.90
2018-10-16T03:14:34.726Z,71.00
2018-10-16T03:17:03.054Z,71.20
2018-10-16T03:19:31.383Z,71.60
2018-10-16T03:21:59.666Z,72.10
2018-10-16T03:24:28.005Z,72.60
2018-10-16T03:26:56.286Z,72.50
2018-10-16T03:29:24.594Z,72.80
2018-10-16T03:31:52.882Z,73.00
2018-10-16T03:34:21.191Z,72.80
2018-10-16T03:36:49.508Z,73.00
2018-10-16T03:39:17.832Z,73.50
2018-10-16T03:41:46.120Z,73.50
2018-10-16T03:44:14.647Z,73.70
2018-10-16T03:46:43.009Z,73.70
2018-10-16T03:49:11.812Z,74.10
2018-10-16T03:51:40.908Z,74.50
2018-10-16T03:54:09.824Z,74.60
2018-10-16T03:56:38.143Z,75.00
2018-10-16T03:59:06.541Z,75.30
2018-10-16T04:01:34.832Z,75.60
2018-10-16T04:04:03.192Z,76.50
2018-10-16T04:06:31.544Z,76.10
2018-10-16T04:08:59.848Z,77.20
2018-10-16T04:11:28.287Z,77.00
2018-10-16T04:13:56.588Z,77.40
2018-10-16T04:16:24.973Z,78.10
2018-10-16T04:18:53.209Z,78.10
2018-10-16T04:21:21.428Z,78.30
2018-10-16T04:23:49.798Z,78.70
2018-10-16T04:26:18.035Z,78.80
2018-10-16T04:28:46.276Z,79.10
2018-10-16T04:31:14.620Z,79.30
2018-10-16T04:33:43.151Z,79.20
2018-10-16T04:36:11.392Z,79.50
2018-10-16T04:38:39.637Z,79.40
2018-10-16T04:41:07.853Z,79.90
2018-10-16T04:43:36.128Z,80.00
2018-10-16T04:46:04.426Z,80.30
2018-10-16T04:48:32.635Z,80.80
2018-10-16T04:51:00.869Z,81.10
2018-10-16T04:53:29.177Z,81.70
2018-10-16T04:55:57.422Z,82.00
2018-10-16T04:58:25.945Z,82.40
2018-10-16T05:00:54.241Z,82.50
2018-10-16T05:03:22.488Z,82.60
2018-10-16T05:05:50.707Z,83.00
2018-10-16T05:08:18.965Z,83.70
2018-10-16T05:10:47.286Z,84.20
2018-10-16T05:13:15.687Z,84.30
2018-10-16T05:15:43.902Z,84.60
2018-10-16T05:18:12.487Z,84.70
2018-10-16T05:20:40.817Z,84.90
2018-10-16T05:23:09.107Z,85.00
2018-10-16T05:25:37.364Z,85.50
2018-10-16T05:28:05.656Z,87.60
2018-10-16T05:30:33.946Z,87.20
2018-10-16T05:33:02.364Z,87.00
2018-10-16T05:35:30.646Z,87.00
2018-10-16T05:37:58.952Z,87.30
2018-10-16T05:40:27.338Z,87.50
2018-10-16T05:42:55.682Z,87.60
2018-10-16T05:45:25.100Z,88.10
2018-10-16T05:47:53.398Z,88.20
2018-10-16T05:50:22.273Z,88.70
2018-10-16T05:52:50.562Z,89.00
2018-10-16T05:55:18.936Z,89.00
2018-10-16T05:57:47.216Z,90.30
2018-10-16T06:00:26.965Z,90.70
2018-10-16T06:02:55.196Z,90.80
2018-10-16T06:05:23.502Z,91.00
2018-10-16T06:07:51.816Z,91.00
2018-10-16T06:10:20.110Z,91.50
2018-10-16T06:12:48.402Z,90.90
2018-10-16T06:15:16.605Z,90.90
2018-10-16T06:17:44.916Z,90.80
2018-10-16T06:20:13.555Z,90.60
2018-10-16T06:22:42.550Z,90.40
2018-10-16T06:25:11.136Z,90.40
2018-10-16T06:27:40.619Z,90.70
2018-10-16T06:30:09.315Z,90.70
2018-10-16T06:32:38.286Z,90.30
2018-10-16T06:35:07.258Z,90.40
2018-10-16T06:37:35.510Z,90.70
2018-10-16T06:40:03.906Z,91.10
2018-10-16T06:42:32.140Z,91.20
2018-10-16T06:45:00.332Z,91.30
2018-10-16T06:47:28.655Z,91.20
2018-10-16T06:49:56.915Z,91.20
2018-10-16T06:52:25.141Z,90.90
2018-10-16T06:54:53.403Z,91.00
2018-10-16T06:57:21.679Z,90.60
2018-10-16T06:59:49.962Z,90.60
2018-10-16T07:02:18.209Z,91.10
2018-10-16T07:04:46.580Z,91.10
2018-10-16T07:07:14.936Z,91.50
2018-10-16T07:09:43.053Z,91.50
2018-10-16T07:12:11.303Z,91.60
2018-10-16T07:14:39.602Z,92.20
2018-10-16T07:17:07.815Z,92.60
2018-10-16T07:19:36.134Z,92.60
2018-10-16T07:22:07.484Z,92.70
2018-10-16T07:24:36.329Z,92.60
2018-10-16T07:27:05.122Z,92.80
2018-10-16T07:29:33.464Z,92.40
2018-10-16T07:32:02.932Z,91.90
2018-10-16T07:34:31.395Z,91.60
2018-10-16T07:36:59.893Z,91.70
2018-10-16T07:39:28.358Z,91.80
2018-10-16T07:41:56.871Z,91.60
2018-10-16T07:44:25.171Z,91.00
2018-10-16T07:46:53.450Z,90.40
2018-10-16T07:49:21.877Z,89.90
2018-10-16T07:51:50.173Z,88.90
2018-10-16T07:54:18.478Z,88.00
2018-10-16T07:56:46.990Z,87.40
2018-10-16T07:59:15.296Z,86.60
2018-10-16T08:01:43.513Z,86.50
2018-10-16T08:04:11.844Z,86.00
2018-10-16T08:06:40.108Z,85.60
2018-10-16T08:09:10.586Z,85.60
2018-10-16T08:11:43.092Z,85.60
2018-10-16T08:14:11.465Z,85.20
2018-10-16T08:16:39.688Z,84.70
2018-10-16T08:19:07.960Z,84.80
2018-10-16T08:21:36.210Z,84.90
2018-10-16T08:24:04.609Z,84.70
2018-10-16T08:26:32.887Z,84.00
2018-10-16T08:29:01.163Z,83.50
2018-10-16T08:31:29.601Z,84.10
2018-10-16T08:33:57.884Z,83.80
2018-10-16T08:36:26.318Z,83.80
2018-10-16T08:39:02.234Z,83.70
2018-10-16T08:41:51.820Z,84.30
2018-10-16T08:44:31.715Z,84.10
2018-10-16T08:47:11.612Z,84.40
2018-10-16T08:49:51.443Z,84.60
2018-10-16T08:52:19.634Z,83.80
2018-10-16T08:54:47.970Z,84.10
2018-10-16T08:57:16.291Z,83.70
2018-10-16T08:59:44.621Z,82.90
2018-10-16T09:02:12.925Z,82.50
2018-10-16T09:04:41.205Z,81.00
2018-10-16T09:07:09.444Z,80.80
2018-10-16T09:09:37.720Z,79.80
2018-10-16T09:12:05.973Z,79.60
2018-10-16T09:14:34.241Z,79.40
2018-10-16T09:17:02.504Z,78.70
2018-10-16T09:19:30.763Z,78.60
2018-10-16T09:21:59.209Z,77.80
2018-10-16T09:24:27.539Z,76.70
2018-10-16T09:26:55.786Z,75.60
2018-10-16T09:29:24.069Z,75.30
2018-10-16T09:31:52.285Z,75.90
2018-10-16T09:34:21.602Z,74.00
2018-10-16T09:36:49.935Z,74.30
2018-10-16T09:39:18.205Z,74.00
2018-10-16T09:41:46.497Z,73.00
2018-10-16T09:44:14.773Z,72.10
2018-10-16T09:46:43.143Z,71.60
2018-10-16T09:49:11.388Z,71.60
2018-10-16T09:51:39.594Z,70.40
2018-10-16T09:54:08.021Z,70.50
2018-10-16T09:56:36.628Z,69.40
2018-10-16T09:59:04.936Z,68.80
2018-10-16T10:01:38.562Z,67.90
2018-10-16T10:04:07.128Z,66.60
2018-10-16T10:06:35.361Z,65.30
2018-10-16T10:09:04.735Z,64.20
2018-10-16T10:11:32.973Z,59.80
2018-10-16T10:14:01.185Z,56.30
2018-10-16T10:16:29.498Z,52.40
2018-10-16T10:18:57.702Z,47.50
2018-10-16T10:21:26.226Z,44.80
2018-10-16T10:23:54.457Z,42.40
2018-10-16T10:26:22.881Z,40.30
2018-10-16T10:28:51.128Z,38.50
2018-10-16T10:31:19.393Z,37.50
2018-10-16T10:33:47.609Z,36.50
2018-10-16T10:36:15.971Z,36.40
2018-10-16T10:38:44.285Z,37.60
2018-10-16T10:41:12.579Z,38.60
2018-10-16T10:43:40.801Z,40.40
2018-10-16T10:46:09.014Z,40.00
2018-10-16T10:48:37.944Z,38.70
2018-10-16T10:51:06.536Z,36.80
2018-10-16T10:53:35.142Z,36.50
2018-10-16T10:56:03.392Z,35.30
2018-10-16T10:58:31.688Z,33.50
2018-10-16T11:00:59.940Z,33.00
2018-10-16T11:03:28.413Z,32.10
2018-10-16T11:05:56.589Z,31.90
2018-10-16T11:08:24.953Z,30.80
2018-10-16T11:10:53.210Z,29.60
2018-10-16T11:13:21.525Z,29.00
2018-10-16T11:15:49.793Z,29.00
2018-10-16T11:18:18.045Z,29.00
2018-10-16T11:20:46.301Z,28.70
2018-10-16T11:23:14.539Z,29.20
2018-10-16T11:25:42.796Z,28.70
2018-10-16T11:28:11.007Z,28.70
2018-10-16T11:30:39.246Z,27.90
2018-10-16T11:33:07.594Z,28.80
2018-10-16T11:35:35.952Z,29.60
2018-10-16T11:38:04.421Z,28.90
2018-10-16T11:40:32.756Z,28.40
2018-10-16T11:43:01.081Z,26.80
2018-10-16T11:45:29.299Z,27.40
2018-10-16T11:47:57.572Z,26.80
2018-10-16T11:50:25.825Z,29.00
2018-10-16T11:52:54.081Z,31.40
2018-10-16T11:55:22.317Z,33.00
2018-10-16T11:57:51.062Z,34.50
2018-10-16T12:00:19.361Z,36.10
2018-10-16T12:20:09.044Z,41.70
2018-10-16T12:22:37.278Z,42.60
2018-10-16T12:25:06.486Z,43.10
2018-10-16T12:27:34.700Z,42.70
2018-10-16T12:30:02.972Z,42.70
2018-10-16T12:32:32.886Z,43.40
2018-10-16T12:35:01.100Z,43.50
2018-10-16T12:37:29.350Z,43.60
2018-10-16T12:39:57.610Z,44.00
2018-10-16T12:42:26.034Z,43.70
2018-10-16T12:44:54.349Z,43.60
2018-10-16T12:47:22.550Z,43.80
2018-10-16T12:49:50.820Z,43.90
2018-10-16T12:52:19.131Z,44.30
2018-10-16T12:54:47.381Z,44.10
2018-10-16T12:57:15.966Z,44.90
2018-10-16T12:59:45.282Z,44.70
2018-10-16T13:02:14.021Z,44.40
2018-10-16T13:04:42.154Z,43.70
2018-10-16T13:07:15.820Z,44.00
2018-10-16T13:09:44.128Z,43.90
2018-10-16T13:12:12.344Z,43.40
2018-10-16T13:14:40.592Z,42.70
2018-10-16T13:17:08.804Z,42.10
2018-10-16T13:19:37.040Z,41.80
2018-10-16T13:22:05.464Z,41.60
2018-10-16T13:24:33.722Z,41.60
2018-10-16T13:27:02.311Z,39.90
2018-10-16T13:29:30.795Z,38.70
2018-10-16T13:31:59.021Z,38.00
2018-10-16T13:34:27.283Z,38.30
2018-10-16T13:36:55.654Z,37.40
2018-10-16T13:39:23.795Z,36.20
2018-10-16T13:41:52.088Z,34.80
2018-10-16T13:44:20.353Z,33.70
2018-10-16T13:46:48.568Z,33.30
2018-10-16T13:49:16.980Z,33.90
2018-10-16T13:51:45.259Z,32.40
2018-10-16T13:54:13.555Z,32.40
2018-10-16T13:56:42.175Z,32.80
2018-10-16T13:59:10.585Z,32.80
2018-10-16T14:01:38.865Z,32.20
2018-10-16T14:04:07.293Z,32.00
2018-10-16T14:06:35.413Z,32.80
2018-10-16T14:09:04.841Z,34.20
2018-10-16T14:11:33.885Z,34.50
2018-10-16T14:14:02.254Z,35.10
2018-10-16T14:16:30.593Z,34.40
2018-10-16T14:18:58.921Z,34.00
2018-10-16T14:21:27.347Z,33.10
2018-10-16T14:23:55.683Z,32.70
2018-10-16T14:26:23.921Z,32.10
2018-10-16T14:28:52.497Z,32.20
2018-10-16T14:31:20.744Z,32.90
2018-10-16T14:33:49.949Z,33.90
2018-10-16T14:36:18.061Z,35.30
2018-10-16T14:38:46.320Z,36.70
2018-10-16T14:41:14.637Z,38.10
2018-10-16T14:43:42.885Z,38.80
2018-10-16T14:46:11.175Z,39.70
2018-10-16T14:48:39.462Z,40.30
2018-10-16T14:51:07.785Z,40.80
2018-10-16T14:53:36.001Z,41.80
2018-10-16T14:56:04.723Z,42.90
2018-10-16T14:58:32.955Z,43.80
2018-10-16T15:18:17.313Z,46.70
2018-10-16T15:20:45.591Z,46.70
2018-10-16T15:23:14.039Z,47.40
2018-10-16T15:25:42.764Z,48.30
2018-10-16T15:28:11.487Z,48.30
2018-10-16T15:30:39.782Z,48.50
2018-10-16T15:33:08.115Z,48.70
2018-10-16T15:35:37.110Z,49.40
2018-10-16T15:38:08.399Z,49.90
2018-10-16T15:40:39.775Z,50.20
2018-10-16T15:43:11.944Z,50.60
2018-10-16T15:45:41.709Z,51.10
2018-10-16T15:48:10.165Z,51.10
2018-10-16T15:50:38.576Z,51.70
2018-10-16T15:53:08.032Z,51.80
2018-10-16T15:55:36.311Z,52.00
2018-10-16T15:58:05.447Z,52.10
2018-10-16T16:00:36.184Z,52.50
2018-10-16T16:03:04.434Z,53.00
2018-10-16T16:05:32.767Z,53.40
2018-10-16T16:08:01.022Z,53.70
2018-10-16T16:10:29.394Z,54.10
2018-10-16T16:12:58.467Z,54.50
2018-10-16T16:15:26.865Z,55.40
2018-10-16T16:17:55.308Z,55.00
2018-10-16T16:20:23.547Z,55.40
2018-10-16T16:22:51.922Z,55.50
2018-10-16T16:25:20.392Z,56.10
2018-10-16T16:27:48.819Z,56.50
2018-10-16T16:30:17.724Z,56.80
2018-10-16T16:32:46.319Z,57.10
2018-10-16T16:35:15.094Z,57.20
2018-10-16T16:37:44.041Z,57.60
2018-10-16T16:40:14.069Z,58.00
2018-10-16T16:42:42.506Z,58.20
2018-10-16T16:45:11.598Z,58.50
2018-10-16T16:47:39.846Z,58.80
2018-10-16T16:50:09.518Z,59.00
2018-10-16T16:52:37.822Z,59.40
2018-10-16T16:55:07.617Z,59.60
2018-10-16T16:57:35.932Z,60.00
2018-10-16T17:00:04.241Z,60.00
2018-10-16T17:02:32.595Z,60.80
2018-10-16T17:05:00.835Z,61.00
2018-10-16T17:07:29.350Z,61.50
2018-10-16T17:09:57.652Z,61.60
2018-10-16T17:12:25.902Z,61.90
2018-10-16T17:14:54.204Z,62.50
2018-10-16T17:17:22.479Z,62.60
2018-10-16T17:19:50.771Z,63.20
2018-10-16T17:23:48.458Z,63.50
2018-10-16T17:26:17.054Z,64.10
2018-10-16T17:28:45.429Z,64.70
2018-10-16T17:31:13.949Z,64.90
2018-10-16T17:33:42.230Z,65.60
2018-10-16T17:36:10.581Z,66.20
2018-10-16T17:38:38.890Z,66.50
2018-10-16T17:41:07.139Z,66.90
2018-10-16T17:43:35.396Z,67.10
2018-10-16T17:46:04.053Z,67.20
2018-10-16T17:48:32.326Z,67.80
2018-10-16T17:51:00.714Z,67.90
2018-10-16T17:53:28.979Z,68.30
2018-10-16T17:55:57.204Z,69.00
2018-10-16T17:58:25.453Z,69.30
2018-10-16T18:00:53.709Z,69.20
2018-10-16T18:03:22.171Z,69.60
2018-10-16T18:05:50.634Z,69.90
2018-10-16T18:08:19.049Z,70.10
2018-10-16T18:10:47.476Z,71.10
2018-10-16T18:13:15.880Z,70.40
2018-10-16T18:15:44.181Z,70.90
2018-10-16T18:18:12.541Z,71.40
2018-10-16T18:20:40.842Z,71.60
2018-10-16T18:23:09.234Z,72.70
2018-10-16T18:25:37.722Z,72.10
2018-10-16T18:28:06.142Z,73.10
2018-10-16T18:30:35.539Z,73.30
2018-10-16T18:33:03.850Z,73.90
2018-10-16T18:35:32.248Z,74.50
2018-10-16T18:38:00.583Z,74.90
2018-10-16T18:40:29.191Z,75.70
2018-10-16T18:42:57.455Z,76.20
2018-10-16T18:45:25.775Z,76.80
2018-10-16T18:47:54.136Z,77.50
2018-10-16T18:50:22.479Z,78.20
2018-10-16T18:52:50.852Z,78.80
2018-10-16T18:55:19.136Z,79.00
2018-10-16T18:57:47.470Z,79.60
2018-10-16T19:00:17.933Z,80.00
2018-10-16T19:02:46.956Z,80.30
2018-10-16T19:05:15.580Z,81.00
2018-10-16T19:07:43.951Z,81.30
2018-10-16T19:10:12.333Z,81.70
2018-10-16T19:12:41.523Z,82.10
2018-10-16T19:15:11.388Z,82.70
2018-10-16T19:17:39.831Z,83.10
2018-10-16T19:20:09.875Z,83.30
2018-10-16T19:22:38.290Z,83.50
2018-10-16T19:25:07.129Z,83.90
2018-10-16T19:27:35.440Z,84.00
2018-10-16T19:30:03.848Z,84.60
2018-10-16T19:32:32.306Z,85.10
2018-10-16T19:35:00.783Z,85.20
2018-10-16T19:37:29.075Z,85.90
2018-10-16T19:39:57.425Z,86.20
2018-10-16T19:42:25.668Z,86.30
2018-10-16T19:44:54.036Z,87.00
2018-10-16T19:47:22.434Z,87.40
2018-10-16T19:49:50.880Z,87.70
2018-10-16T19:52:19.941Z,88.00
2018-10-16T19:54:48.618Z,88.70
2018-10-16T19:57:17.069Z,88.40
2018-10-16T19:59:45.261Z,89.00
2018-10-16T20:02:13.688Z,89.20
2018-10-16T20:04:42.080Z,89.50
2018-10-16T20:07:10.367Z,89.80
2018-10-16T20:09:38.669Z,89.90
2018-10-16T20:12:07.004Z,90.30
2018-10-16T20:14:35.527Z,90.80
2018-10-16T20:17:03.896Z,90.50
2018-10-16T20:19:32.368Z,90.60
2018-10-16T20:22:00.593Z,90.80
2018-10-16T20:24:28.916Z,91.00
2018-10-16T20:26:57.184Z,91.30
2018-10-16T20:29:25.547Z,91.80
2018-10-16T20:31:53.971Z,92.20
2018-10-16T20:34:22.338Z,92.10
2018-10-16T20:36:51.405Z,92.20
2018-10-16T20:39:19.761Z,92.50
2018-10-16T20:41:48.074Z,92.80
2018-10-16T20:44:16.480Z,92.90
2018-10-16T20:46:44.771Z,93.10
2018-10-16T20:49:13.139Z,93.40
2018-10-16T20:51:41.343Z,93.60
2018-10-16T20:54:09.590Z,93.80
2018-10-16T20:56:37.831Z,94.00
2018-10-16T20:59:06.117Z,94.10
2018-10-16T21:01:34.379Z,94.30
2018-10-16T21:04:02.655Z,94.40
2018-10-16T21:06:31.179Z,94.70
2018-10-16T21:08:59.306Z,95.20
2018-10-16T21:11:27.547Z,95.40
2018-10-16T21:13:55.924Z,95.70
2018-10-16T21:16:24.211Z,95.90
2018-10-16T21:18:52.417Z,96.30
2018-10-16T21:21:20.765Z,96.60
2018-10-16T21:23:49.050Z,96.90
2018-10-16T21:26:17.269Z,97.80
2018-10-16T21:28:45.877Z,97.60
2018-10-16T21:31:14.279Z,97.70
2018-10-16T21:33:42.598Z,98.00
2018-10-16T21:36:10.812Z,98.20
2018-10-16T21:38:39.156Z,98.60
2018-10-16T21:41:07.515Z,98.80
2018-10-16T21:43:35.815Z,99.00
2018-10-16T21:46:04.119Z,99.20
2018-10-16T21:48:32.469Z,99.30
2018-10-16T21:51:00.704Z,99.40
2018-10-16T21:53:29.093Z,99.60
2018-10-16T21:55:57.479Z,99.90
2018-10-16T21:58:26.051Z,99.90
2018-10-16T22:00:59.837Z,99.90
2018-10-16T22:03:28.150Z,99.90
2018-10-16T22:05:56.391Z,99.90
2018-10-16T22:08:24.659Z,99.90
2018-10-16T22:10:52.930Z,99.90
2018-10-16T22:13:21.201Z,99.90
2018-10-16T22:15:49.424Z,99.90
2018-10-16T22:18:17.721Z,99.90
2018-10-16T22:20:45.977Z,99.90
2018-10-16T22:23:14.319Z,99.90
2018-10-16T22:25:42.550Z,99.90
2018-10-16T22:28:10.795Z,99.90
2018-10-16T22:30:39.066Z,99.90
2018-10-16T22:33:07.279Z,99.90
2018-10-16T22:35:35.590Z,99.90
2018-10-16T22:38:03.869Z,99.90
2018-10-16T22:40:32.176Z,99.90
2018-10-16T22:43:00.444Z,99.90
2018-10-16T22:45:28.654Z,99.90
2018-10-16T22:47:56.908Z,99.90
2018-10-16T22:50:25.194Z,99.90
2018-10-16T22:52:53.484Z,99.90
2018-10-16T22:55:21.746Z,99.90
2018-10-16T22:57:49.954Z,99.90
2018-10-16T23:00:19.233Z,99.90
2018-10-16T23:02:48.403Z,99.90
2018-10-16T23:05:16.695Z,99.90
2018-10-16T23:07:46.069Z,99.90
2018-10-16T23:10:14.844Z,99.90
2018-10-16T23:12:43.439Z,99.90
2018-10-16T23:15:12.165Z,99.90
2018-10-16T23:17:40.849Z,99.90
2018-10-16T23:20:10.101Z,99.90
2018-10-16T23:22:38.324Z,99.90
2018-10-16T23:25:06.678Z,99.90
2018-10-16T23:27:35.433Z,99.90
2018-10-16T23:30:03.770Z,99.90
2018-10-16T23:32:32.004Z,99.90
2018-10-16T23:35:00.262Z,99.90
2018-10-16T23:37:28.538Z,99.90
2018-10-16T23:39:56.778Z,99.90
2018-10-16T23:42:24.979Z,99.90
2018-10-16T23:44:53.247Z,99.90
2018-10-16T23:47:21.440Z,99.90
2018-10-16T23:49:49.714Z,99.90
2018-10-16T23:52:17.946Z,99.90
2018-10-16T23:54:46.172Z,99.90
2018-10-16T23:57:14.391Z,99.90
2018-10-16T23:59:42.607Z,99.90
